createdAt,value
2022-11-27T00:02:22.560Z,64.30
2022-11-27T00:04:49.270Z,64.20
2022-11-27T00:07:15.975Z,64.00
2022-11-27T00:09:42.762Z,64.10
2022-11-27T00:12:09.631Z,63.90
2022-11-27T00:14:36.296Z,64.20
2022-11-27T00:17:03.017Z,63.90
2022-11-27T00:19:29.671Z,63.90
2022-11-27T00:21:56.325Z,63.90
2022-11-27T00:24:22.950Z,63.90
2022-11-27T00:26:49.909Z,64.10
2022-11-27T00:29:16.626Z,63.90
2022-11-27T00:31:43.404Z,64.10
2022-11-27T00:34:10.518Z,64.00
2022-11-27T00:36:37.600Z,64.00
2022-11-27T00:39:04.349Z,64.10
2022-11-27T00:41:31.120Z,64.00
2022-11-27T00:43:58.205Z,63.70
2022-11-27T00:46:28.813Z,64.00
2022-11-27T00:48:56.887Z,64.00
2022-11-27T00:51:24.032Z,64.00
2022-11-27T00:53:50.793Z,64.10
2022-11-27T00:56:19.652Z,64.00
2022-11-27T00:58:46.342Z,64.10
2022-11-27T01:01:24.487Z,63.90
2022-11-27T01:03:51.180Z,63.90
2022-11-27T01:06:18.611Z,64.20
2022-11-27T01:08:45.735Z,64.00
2022-11-27T01:11:16.073Z,64.10
2022-11-27T01:13:42.850Z,64.10
2022-11-27T01:16:11.227Z,64.10
2022-11-27T01:18:38.782Z,63.90
2022-11-27T01:21:05.746Z,64.00
2022-11-27T01:23:32.804Z,63.80
2022-11-27T01:26:02.897Z,64.00
2022-11-27T01:28:29.970Z,63.90
2022-11-27T01:30:56.699Z,63.90
2022-11-27T01:33:23.425Z,63.90
2022-11-27T01:35:56.298Z,64.10
2022-11-27T01:38:23.725Z,64.70
2022-11-27T01:40:56.877Z,64.00
2022-11-27T01:43:49.912Z,63.90
2022-11-27T01:46:28.751Z,63.90
2022-11-27T01:49:18.616Z,63.80
2022-11-27T01:52:05.564Z,63.90
2022-11-27T01:54:41.487Z,63.90
2022-11-27T01:57:12.792Z,63.80
2022-11-27T01:59:39.955Z,62.90
2022-11-27T02:02:06.740Z,63.30
2022-11-27T02:04:33.625Z,62.70
2022-11-27T02:07:00.621Z,63.30
2022-11-27T02:09:28.008Z,63.20
2022-11-27T02:11:54.644Z,63.20
2022-11-27T02:14:32.073Z,63.00
2022-11-27T02:17:11.075Z,63.00
2022-11-27T02:19:50.122Z,63.00
2022-11-27T02:22:19.852Z,63.10
2022-11-27T02:24:55.817Z,63.10
2022-11-27T02:27:40.990Z,62.90
2022-11-27T02:30:07.996Z,62.90
2022-11-27T02:32:37.394Z,63.00
2022-11-27T02:35:09.421Z,62.70
2022-11-27T02:37:50.914Z,62.70
2022-11-27T02:40:21.897Z,62.80
2022-11-27T02:42:51.573Z,62.70
2022-11-27T02:45:21.998Z,62.80
2022-11-27T02:47:49.268Z,62.60
2022-11-27T02:50:21.487Z,62.70
2022-11-27T02:52:49.653Z,62.80
2022-11-27T02:55:19.000Z,63.00
2022-11-27T02:57:46.336Z,62.60
2022-11-27T03:00:13.587Z,62.70
2022-11-27T03:02:42.402Z,62.80
2022-11-27T03:05:12.319Z,62.70
2022-11-27T03:07:45.032Z,62.70
2022-11-27T03:10:24.434Z,62.70
2022-11-27T03:12:51.467Z,62.70
2022-11-27T03:15:19.420Z,62.80
2022-11-27T03:17:46.067Z,62.80
2022-11-27T03:20:21.533Z,62.70
2022-11-27T03:22:48.245Z,63.00
2022-11-27T03:25:16.310Z,62.80
2022-11-27T03:27:46.137Z,63.00
2022-11-27T03:30:13.003Z,63.00
2022-11-27T03:32:39.760Z,62.80
2022-11-27T03:35:08.726Z,62.90
2022-11-27T03:37:35.971Z,63.10
2022-11-27T03:40:03.297Z,62.90
2022-11-27T03:42:32.748Z,63.00
2022-11-27T03:45:17.112Z,62.90
2022-11-27T03:48:02.513Z,62.90
2022-11-27T03:50:35.045Z,63.00
2022-11-27T03:53:16.911Z,62.80
2022-11-27T03:55:53.980Z,63.00
2022-11-27T03:58:34.160Z,63.00
2022-11-27T04:01:02.883Z,62.90
2022-11-27T04:03:30.564Z,62.80
2022-11-27T04:05:57.632Z,63.00
2022-11-27T04:08:24.383Z,62.80
2022-11-27T04:10:51.053Z,62.60
2022-11-27T04:13:17.699Z,62.60
2022-11-27T04:15:44.417Z,62.30
2022-11-27T04:18:11.107Z,62.30
2022-11-27T04:20:37.865Z,62.30
2022-11-27T04:23:04.558Z,62.40
2022-11-27T04:25:31.253Z,62.20
2022-11-27T04:27:57.946Z,62.20
2022-11-27T04:30:24.694Z,62.10
2022-11-27T04:32:51.348Z,62.10
2022-11-27T04:35:17.990Z,62.10
2022-11-27T04:37:44.771Z,62.20
2022-11-27T04:40:11.828Z,62.10
2022-11-27T04:42:38.552Z,62.20
2022-11-27T04:45:05.486Z,62.10
2022-11-27T04:47:32.198Z,62.00
2022-11-27T04:49:58.868Z,61.60
2022-11-27T04:52:25.533Z,61.20
2022-11-27T04:54:56.805Z,61.20
2022-11-27T04:57:26.484Z,61.70
2022-11-27T04:59:53.205Z,61.90
2022-11-27T05:02:19.911Z,61.90
2022-11-27T05:04:46.545Z,62.10
2022-11-27T05:07:13.244Z,61.90
2022-11-27T05:09:39.972Z,62.00
2022-11-27T05:12:06.984Z,61.80
2022-11-27T05:14:33.887Z,61.80
2022-11-27T05:17:01.036Z,61.50
2022-11-27T05:19:29.428Z,61.90
2022-11-27T05:21:56.525Z,61.80
2022-11-27T05:24:24.100Z,61.80
2022-11-27T05:26:50.788Z,61.80
2022-11-27T05:29:17.613Z,61.80
2022-11-27T05:31:44.557Z,61.60
2022-11-27T05:34:11.410Z,61.60
2022-11-27T05:36:38.492Z,61.60
2022-11-27T05:39:09.029Z,61.60
2022-11-27T05:41:36.799Z,61.70
2022-11-27T05:44:04.152Z,61.60
2022-11-27T05:46:30.840Z,61.70
2022-11-27T05:48:57.577Z,61.50
2022-11-27T05:51:24.892Z,61.40
2022-11-27T05:53:51.663Z,61.30
2022-11-27T05:56:18.599Z,61.40
2022-11-27T05:58:46.250Z,61.30
2022-11-27T06:01:13.989Z,61.30
2022-11-27T06:03:40.717Z,61.50
2022-11-27T06:06:15.098Z,61.40
2022-11-27T06:08:42.040Z,61.70
2022-11-27T06:11:09.643Z,61.00
2022-11-27T06:13:36.587Z,61.10
2022-11-27T06:16:11.415Z,61.30
2022-11-27T06:18:38.144Z,61.20
2022-11-27T06:21:13.130Z,61.20
2022-11-27T06:23:40.804Z,61.10
2022-11-27T06:26:11.898Z,60.80
2022-11-27T06:28:38.676Z,60.80
2022-11-27T06:31:06.351Z,60.50
2022-11-27T06:33:33.098Z,60.90
2022-11-27T06:35:59.766Z,61.00
2022-11-27T06:38:26.406Z,61.00
2022-11-27T06:40:53.049Z,61.00
2022-11-27T06:43:19.709Z,61.10
2022-11-27T06:45:54.493Z,60.70
2022-11-27T06:48:21.170Z,60.70
2022-11-27T06:50:47.815Z,60.70
2022-11-27T06:53:14.504Z,60.80
2022-11-27T06:55:41.151Z,60.70
2022-11-27T06:58:07.832Z,60.70
2022-11-27T07:00:34.564Z,60.80
2022-11-27T07:03:01.251Z,60.60
2022-11-27T07:05:29.896Z,60.50
2022-11-27T07:07:56.659Z,60.50
2022-11-27T07:10:23.382Z,60.40
2022-11-27T07:12:51.580Z,60.40
2022-11-27T07:15:18.232Z,60.60
2022-11-27T07:17:44.903Z,60.30
2022-11-27T07:20:11.731Z,60.40
2022-11-27T07:22:38.408Z,60.30
2022-11-27T07:25:05.319Z,60.30
2022-11-27T07:27:32.051Z,60.30
2022-11-27T07:29:58.744Z,60.20
2022-11-27T07:32:25.399Z,60.20
2022-11-27T07:34:52.055Z,60.10
2022-11-27T07:37:18.720Z,60.00
2022-11-27T07:40:01.929Z,60.10
2022-11-27T07:42:38.080Z,60.20
2022-11-27T07:45:06.633Z,60.30
2022-11-27T07:47:33.338Z,60.00
2022-11-27T07:50:00.605Z,59.90
2022-11-27T07:52:27.466Z,59.90
2022-11-27T07:54:54.191Z,59.90
2022-11-27T07:57:21.015Z,60.00
2022-11-27T07:59:47.944Z,60.00
2022-11-27T08:02:14.805Z,60.00
2022-11-27T08:04:41.765Z,59.80
2022-11-27T08:07:08.738Z,59.80
2022-11-27T08:09:35.477Z,59.80
2022-11-27T08:12:02.125Z,59.80
2022-11-27T08:14:29.052Z,59.80
2022-11-27T08:16:56.092Z,59.80
2022-11-27T08:19:23.106Z,59.80
2022-11-27T08:21:50.165Z,59.70
2022-11-27T08:24:16.984Z,59.60
2022-11-27T08:26:43.668Z,59.70
2022-11-27T08:29:11.749Z,59.80
2022-11-27T08:31:38.764Z,59.80
2022-11-27T08:34:05.620Z,59.80
2022-11-27T08:36:32.324Z,59.70
2022-11-27T08:38:59.061Z,59.60
2022-11-27T08:41:25.767Z,59.50
2022-11-27T08:43:52.521Z,59.60
2022-11-27T08:46:19.365Z,59.70
2022-11-27T08:48:46.169Z,59.70
2022-11-27T08:51:14.292Z,59.60
2022-11-27T08:53:41.203Z,59.80
2022-11-27T08:56:16.036Z,59.60
2022-11-27T08:58:43.218Z,59.70
2022-11-27T09:01:14.256Z,59.60
2022-11-27T09:03:41.014Z,59.40
2022-11-27T09:06:11.988Z,59.20
2022-11-27T09:08:39.264Z,59.40
2022-11-27T09:11:06.693Z,59.50
2022-11-27T09:13:36.828Z,59.10
2022-11-27T09:16:04.466Z,59.20
2022-11-27T09:18:31.498Z,59.10
2022-11-27T09:20:59.222Z,59.30
2022-11-27T09:23:26.216Z,59.10
2022-11-27T09:25:52.981Z,59.00
2022-11-27T09:28:20.361Z,59.20
2022-11-27T09:30:47.147Z,59.20
2022-11-27T09:33:13.856Z,59.30
2022-11-27T09:35:40.717Z,59.30
2022-11-27T09:38:07.553Z,59.20
2022-11-27T09:40:34.340Z,59.20
2022-11-27T09:43:04.341Z,59.00
2022-11-27T09:45:31.411Z,59.00
2022-11-27T09:48:02.865Z,59.00
2022-11-27T09:50:31.422Z,59.00
2022-11-27T09:52:59.851Z,59.20
2022-11-27T09:55:36.723Z,59.30
2022-11-27T09:58:22.167Z,59.40
2022-11-27T10:00:49.058Z,59.50
2022-11-27T10:03:17.937Z,59.40
2022-11-27T10:06:06.257Z,59.20
2022-11-27T10:08:37.947Z,59.30
2022-11-27T10:11:07.716Z,59.50
2022-11-27T10:13:52.842Z,59.60
2022-11-27T10:16:24.912Z,59.50
2022-11-27T10:18:52.691Z,59.60
2022-11-27T10:21:22.325Z,59.50
2022-11-27T10:23:54.654Z,59.40
2022-11-27T10:26:25.003Z,59.40
2022-11-27T10:29:03.870Z,59.20
2022-11-27T10:31:51.091Z,59.30
2022-11-27T10:34:26.127Z,59.50
2022-11-27T10:36:53.753Z,59.30
2022-11-27T10:39:28.480Z,59.20
2022-11-27T10:41:58.365Z,59.20
2022-11-27T10:44:25.062Z,59.40
2022-11-27T10:46:53.037Z,59.30
2022-11-27T10:49:19.719Z,59.20
2022-11-27T10:51:46.430Z,59.10
2022-11-27T10:54:18.337Z,59.20
2022-11-27T10:57:03.237Z,59.40
2022-11-27T10:59:35.793Z,59.30
2022-11-27T11:02:05.624Z,59.30
2022-11-27T11:04:39.946Z,59.40
2022-11-27T11:07:23.744Z,59.00
2022-11-27T11:09:50.538Z,59.30
2022-11-27T11:12:21.601Z,59.40
2022-11-27T11:14:52.407Z,59.20
2022-11-27T11:17:24.504Z,59.30
2022-11-27T11:19:51.232Z,59.20
2022-11-27T11:22:18.098Z,59.20
2022-11-27T11:24:49.005Z,59.30
2022-11-27T11:27:18.834Z,59.20
2022-11-27T11:29:53.222Z,59.30
2022-11-27T11:32:19.894Z,59.30
2022-11-27T11:35:08.524Z,59.30
2022-11-27T11:37:36.777Z,59.90
2022-11-27T11:40:04.061Z,59.10
2022-11-27T11:42:31.877Z,59.00
2022-11-27T11:45:02.135Z,58.90
2022-11-27T11:47:28.968Z,58.60
2022-11-27T11:49:56.502Z,58.60
2022-11-27T11:52:23.109Z,58.40
2022-11-27T11:54:54.476Z,58.30
2022-11-27T11:57:34.206Z,58.30
2022-11-27T12:00:12.942Z,58.20
2022-11-27T12:02:42.874Z,58.30
2022-11-27T12:05:24.979Z,58.40
2022-11-27T12:08:10.308Z,58.50
2022-11-27T12:10:49.268Z,58.50
2022-11-27T12:13:21.046Z,58.60
2022-11-27T12:15:57.992Z,58.60
2022-11-27T12:18:25.310Z,58.60
2022-11-27T12:21:10.723Z,58.60
2022-11-27T12:23:39.379Z,58.70
2022-11-27T12:26:15.164Z,58.70
2022-11-27T12:28:57.613Z,58.70
2022-11-27T12:31:44.504Z,58.70
2022-11-27T12:34:30.109Z,58.80
2022-11-27T12:36:56.768Z,58.80
2022-11-27T12:39:34.870Z,58.90
2022-11-27T12:42:07.235Z,59.00
2022-11-27T12:44:33.977Z,59.00
2022-11-27T12:47:11.032Z,59.40
2022-11-27T12:49:37.710Z,59.10
2022-11-27T12:52:24.442Z,59.00
2022-11-27T12:54:53.542Z,59.10
2022-11-27T12:57:23.908Z,59.10
2022-11-27T13:00:03.043Z,59.70
2022-11-27T13:02:38.210Z,59.30
2022-11-27T13:05:10.461Z,59.20
2022-11-27T13:07:51.907Z,59.30
2022-11-27T13:10:27.339Z,59.30
2022-11-27T13:13:00.999Z,59.10
2022-11-27T13:15:33.207Z,59.20
2022-11-27T13:18:06.237Z,59.30
2022-11-27T13:20:37.348Z,59.40
2022-11-27T13:23:04.075Z,59.30
2022-11-27T13:25:31.871Z,59.30
2022-11-27T13:27:58.727Z,59.20
2022-11-27T13:30:27.335Z,59.20
2022-11-27T13:32:56.219Z,59.20
2022-11-27T13:35:25.697Z,59.10
2022-11-27T13:37:57.293Z,59.10
2022-11-27T13:40:27.152Z,59.10
2022-11-27T13:42:56.444Z,59.20
2022-11-27T13:45:26.455Z,59.20
2022-11-27T13:47:53.450Z,59.20
2022-11-27T13:50:24.700Z,59.20
2022-11-27T13:53:13.962Z,59.10
2022-11-27T13:55:51.952Z,59.00
2022-11-27T13:58:28.132Z,59.10
2022-11-27T14:00:55.025Z,59.20
2022-11-27T14:03:26.818Z,59.10
2022-11-27T14:05:53.901Z,59.10
2022-11-27T14:08:23.025Z,59.00
2022-11-27T14:10:56.060Z,59.20
2022-11-27T14:13:27.376Z,59.20
2022-11-27T14:16:01.786Z,59.10
2022-11-27T14:18:30.020Z,59.00
2022-11-27T14:21:01.622Z,59.10
2022-11-27T14:23:36.276Z,59.00
2022-11-27T14:26:04.622Z,58.90
2022-11-27T14:28:32.650Z,59.00
2022-11-27T14:31:02.903Z,59.00
2022-11-27T14:33:31.381Z,59.10
2022-11-27T14:35:59.634Z,58.80
2022-11-27T14:38:27.797Z,58.30
2022-11-27T14:40:55.360Z,58.90
2022-11-27T14:43:26.330Z,58.90
2022-11-27T14:45:54.892Z,58.90
2022-11-27T14:48:25.828Z,59.00
2022-11-27T14:50:54.029Z,59.10
2022-11-27T14:53:22.386Z,59.10
2022-11-27T14:55:50.783Z,59.00
2022-11-27T14:58:19.665Z,58.80
2022-11-27T15:00:55.054Z,58.60
2022-11-27T15:03:22.092Z,58.40
2022-11-27T15:05:53.321Z,58.30
2022-11-27T15:08:20.144Z,58.30
2022-11-27T15:10:47.003Z,58.30
2022-11-27T15:13:42.785Z,58.40
2022-11-27T15:16:15.382Z,58.50
2022-11-27T15:18:42.910Z,58.50
2022-11-27T15:21:11.276Z,58.60
2022-11-27T15:23:38.515Z,58.50
2022-11-27T15:26:09.585Z,58.60
2022-11-27T15:28:57.258Z,58.60
2022-11-27T15:31:24.000Z,58.70
2022-11-27T15:34:09.653Z,58.50
2022-11-27T15:36:38.588Z,58.80
2022-11-27T15:39:20.419Z,58.80
2022-11-27T15:41:54.935Z,58.70
2022-11-27T15:44:22.268Z,58.70
2022-11-27T15:46:50.309Z,58.70
2022-11-27T15:49:19.692Z,58.60
2022-11-27T15:51:46.572Z,58.80
2022-11-27T15:54:13.495Z,58.60
2022-11-27T15:56:40.193Z,58.50
2022-11-27T15:59:07.256Z,58.40
2022-11-27T16:01:33.985Z,58.50
2022-11-27T16:04:00.801Z,58.50
2022-11-27T16:06:27.486Z,58.50
2022-11-27T16:08:57.737Z,58.30
2022-11-27T16:11:24.894Z,58.30
2022-11-27T16:13:51.749Z,58.40
2022-11-27T16:16:18.613Z,58.50
2022-11-27T16:18:45.349Z,58.30
2022-11-27T16:21:13.334Z,58.40
2022-11-27T16:23:41.172Z,58.50
2022-11-27T16:26:08.152Z,58.20
2022-11-27T16:28:34.812Z,58.50
2022-11-27T16:31:02.736Z,58.50
2022-11-27T16:33:30.346Z,58.20
2022-11-27T16:36:03.882Z,58.30
2022-11-27T16:38:30.609Z,58.30
2022-11-27T16:40:59.886Z,58.20
2022-11-27T16:43:26.666Z,58.50
2022-11-27T16:45:53.404Z,58.50
2022-11-27T16:48:20.157Z,58.40
2022-11-27T16:50:46.833Z,58.30
2022-11-27T16:53:13.521Z,58.20
2022-11-27T16:55:40.185Z,58.40
2022-11-27T16:58:06.865Z,58.50
2022-11-27T17:00:33.585Z,58.40
2022-11-27T17:03:00.276Z,58.70
2022-11-27T17:05:27.387Z,58.20
2022-11-27T17:07:54.667Z,58.20
2022-11-27T17:10:22.121Z,58.30
2022-11-27T17:12:48.860Z,58.30
2022-11-27T17:15:15.578Z,58.50
2022-11-27T17:17:43.512Z,58.40
2022-11-27T17:20:10.301Z,58.30
2022-11-27T17:22:37.087Z,58.20
2022-11-27T17:25:05.238Z,58.20
2022-11-27T17:27:32.556Z,58.30
2022-11-27T17:29:59.312Z,58.40
2022-11-27T17:32:26.087Z,58.20
2022-11-27T17:34:52.772Z,58.00
2022-11-27T17:37:20.222Z,58.00
2022-11-27T17:39:47.876Z,57.60
2022-11-27T17:42:18.182Z,57.70
2022-11-27T17:44:47.976Z,57.90
2022-11-27T17:47:14.686Z,57.50
2022-11-27T17:49:42.163Z,57.60
2022-11-27T17:52:09.008Z,57.60
2022-11-27T17:54:35.702Z,57.70
2022-11-27T17:57:02.615Z,57.70
2022-11-27T17:59:29.299Z,57.60
2022-11-27T18:01:56.037Z,57.50
2022-11-27T18:04:23.233Z,57.50
2022-11-27T18:06:50.374Z,57.30
2022-11-27T18:09:17.376Z,58.10
2022-11-27T18:11:44.149Z,57.50
2022-11-27T18:14:11.894Z,57.60
2022-11-27T18:16:38.704Z,57.70
2022-11-27T18:19:06.872Z,57.60
2022-11-27T18:21:33.896Z,57.30
2022-11-27T18:29:40.026Z,57.50
2022-11-27T18:32:07.060Z,57.70
2022-11-27T18:34:34.041Z,57.70
2022-11-27T18:37:00.944Z,57.50
2022-11-27T18:39:28.004Z,57.40
2022-11-27T18:41:54.702Z,57.50
2022-11-27T18:44:24.603Z,57.50
2022-11-27T18:46:51.449Z,57.70
2022-11-27T18:49:18.255Z,57.80
2022-11-27T18:51:45.120Z,57.70
2022-11-27T18:54:11.794Z,57.60
2022-11-27T18:56:38.593Z,57.40
2022-11-27T18:59:07.013Z,57.40
2022-11-27T19:01:41.279Z,57.40
2022-11-27T19:04:09.371Z,57.50
2022-11-27T19:06:36.838Z,57.60
2022-11-27T19:09:03.682Z,57.70
2022-11-27T19:11:31.072Z,57.50
2022-11-27T19:13:57.936Z,57.40
2022-11-27T19:16:26.705Z,57.30
2022-11-27T19:18:55.651Z,57.40
2022-11-27T19:23:48.367Z,57.40
2022-11-27T19:26:20.141Z,57.50
2022-11-27T19:28:50.796Z,57.60
2022-11-27T19:31:17.723Z,57.40
2022-11-27T19:33:44.772Z,57.70
2022-11-27T19:36:12.764Z,57.70
2022-11-27T19:38:40.438Z,57.40
2022-11-27T19:41:10.848Z,57.20
2022-11-27T19:43:37.634Z,57.20
2022-11-27T19:46:12.848Z,56.70
2022-11-27T19:48:39.553Z,57.00
2022-11-27T19:51:06.385Z,57.00
2022-11-27T19:53:33.598Z,57.00
2022-11-27T19:56:00.288Z,56.90
2022-11-27T19:58:27.025Z,56.90
2022-11-27T20:00:54.085Z,56.90
2022-11-27T20:03:20.860Z,56.90
2022-11-27T20:05:47.517Z,56.70
2022-11-27T20:08:14.349Z,56.70
2022-11-27T20:10:41.041Z,56.80
2022-11-27T20:13:08.146Z,56.90
2022-11-27T20:15:34.921Z,56.90
2022-11-27T20:18:01.641Z,56.90
2022-11-27T20:20:32.775Z,56.90
2022-11-27T20:23:00.849Z,56.70
2022-11-27T20:25:27.688Z,57.30
2022-11-27T20:27:54.478Z,57.50
2022-11-27T20:30:21.168Z,57.00
2022-11-27T20:32:47.940Z,56.80
2022-11-27T20:35:15.262Z,56.70
2022-11-27T20:37:41.938Z,57.20
2022-11-27T20:40:08.941Z,56.70
2022-11-27T20:42:35.620Z,56.50
2022-11-27T20:45:05.182Z,56.80
2022-11-27T20:47:31.976Z,56.70
2022-11-27T20:49:58.722Z,56.80
2022-11-27T20:52:25.489Z,56.70
2022-11-27T20:54:52.255Z,56.70
2022-11-27T20:57:18.935Z,56.50
2022-11-27T20:59:45.625Z,56.50
2022-11-27T21:02:12.619Z,56.50
2022-11-27T21:04:39.413Z,56.70
2022-11-27T21:07:06.469Z,56.70
2022-11-27T21:09:35.741Z,56.60
2022-11-27T21:12:02.539Z,56.90
2022-11-27T21:14:29.208Z,56.80
2022-11-27T21:17:04.352Z,56.90
2022-11-27T21:19:31.609Z,56.80
2022-11-27T21:21:58.480Z,56.90
2022-11-27T21:24:28.680Z,56.60
2022-11-27T21:26:55.513Z,56.60
2022-11-27T21:29:25.491Z,56.70
2022-11-27T21:31:53.197Z,56.80
2022-11-27T21:34:20.075Z,56.40
2022-11-27T21:36:46.799Z,56.50
2022-11-27T21:39:14.523Z,56.60
2022-11-27T21:41:41.196Z,56.30
2022-11-27T21:44:07.950Z,56.10
2022-11-27T21:46:35.576Z,56.20
2022-11-27T21:49:02.384Z,56.20
2022-11-27T21:51:29.736Z,55.90
2022-11-27T21:53:57.653Z,56.20
2022-11-27T21:56:25.457Z,56.00
2022-11-27T21:58:52.265Z,56.00
2022-11-27T22:01:19.984Z,55.40
2022-11-27T22:03:54.713Z,55.80
2022-11-27T22:06:22.276Z,55.60
2022-11-27T22:08:49.893Z,55.70
2022-11-27T22:11:22.089Z,55.20
2022-11-27T22:13:48.903Z,55.80
2022-11-27T22:16:20.226Z,55.70
2022-11-27T22:18:47.066Z,55.60
2022-11-27T22:21:14.493Z,55.10
2022-11-27T22:23:41.543Z,55.40
2022-11-27T22:26:09.990Z,55.70
2022-11-27T22:28:37.341Z,55.50
2022-11-27T22:31:08.339Z,55.90
2022-11-27T22:33:37.044Z,54.70
2022-11-27T22:36:10.816Z,55.30
2022-11-27T22:38:37.578Z,55.80
2022-11-27T22:41:04.490Z,56.20
2022-11-27T22:43:31.184Z,55.90
2022-11-27T22:45:58.029Z,56.00
2022-11-27T22:48:24.743Z,55.90
2022-11-27T22:50:58.029Z,56.00
2022-11-27T22:53:24.796Z,55.80
2022-11-27T22:55:51.502Z,55.90
2022-11-27T22:58:18.186Z,55.80
2022-11-27T23:00:45.024Z,55.70
2022-11-27T23:03:11.825Z,55.60
2022-11-27T23:05:38.857Z,55.60
2022-11-27T23:08:05.790Z,55.60
2022-11-27T23:10:33.219Z,55.80
2022-11-27T23:12:59.918Z,55.50
2022-11-27T23:15:26.588Z,55.40
2022-11-27T23:17:53.306Z,55.50
2022-11-27T23:20:19.986Z,55.30
2022-11-27T23:22:46.945Z,55.40
2022-11-27T23:25:13.621Z,55.40
2022-11-27T23:27:40.298Z,55.40
2022-11-27T23:30:07.427Z,55.40
2022-11-27T23:32:34.248Z,55.50
2022-11-27T23:35:00.968Z,55.50
2022-11-27T23:37:28.099Z,55.60
2022-11-27T23:39:54.776Z,55.30
2022-11-27T23:42:21.534Z,55.10
2022-11-27T23:44:48.370Z,55.10
2022-11-27T23:47:15.085Z,55.00
2022-11-27T23:49:41.984Z,55.10
2022-11-27T23:52:11.813Z,55.00
2022-11-27T23:54:41.138Z,55.10
2022-11-27T23:57:07.958Z,54.90
2022-11-27T23:59:34.640Z,54.90
